sensor_id;sensor_type;location;lat;lon;timestamp;P1;durP1;ratioP1;P2;durP2;ratioP2
17528;SDS011;8882;53.192;8.184;2023-02-28T05:31:29;9.23;;;5.20;;
17528;SDS011;8882;53.192;8.184;2023-02-28T05:33:55;8.83;;;5.90;;
17528;SDS011;8882;53.192;8.184;2023-02-28T05:36:21;10.03;;;6.37;;
17528;SDS011;8882;53.192;8.184;2023-02-28T05:38:47;12.50;;;6.37;;
17528;SDS011;8882;53.192;8.184;2023-02-28T05:41:13;8.80;;;5.90;;
17528;SDS011;8882;53.192;8.184;2023-02-28T05:43:39;12.43;;;5.63;;
17528;SDS011;8882;53.192;8.184;2023-02-28T05:46:06;8.00;;;5.33;;
17528;SDS011;8882;53.192;8.184;2023-02-28T05:48:33;15.17;;;5.67;;
17528;SDS011;8882;53.192;8.184;2023-02-28T05:51:00;7.90;;;5.47;;
17528;SDS011;8882;53.192;8.184;2023-02-28T05:53:27;9.13;;;5.23;;
17528;SDS011;8882;53.192;8.184;2023-02-28T05:55:52;9.33;;;6.20;;
17528;SDS011;8882;53.192;8.184;2023-02-28T05:58:18;7.03;;;5.63;;
17528;SDS011;8882;53.192;8.184;2023-02-28T06:00:43;9.47;;;5.57;;
17528;SDS011;8882;53.192;8.184;2023-02-28T06:03:09;9.90;;;6.03;;
17528;SDS011;8882;53.192;8.184;2023-02-28T06:05:35;10.67;;;6.00;;
17528;SDS011;8882;53.192;8.184;2023-02-28T06:08:00;6.90;;;5.73;;
17528;SDS011;8882;53.192;8.184;2023-02-28T06:10:26;9.93;;;6.37;;
17528;SDS011;8882;53.192;8.184;2023-02-28T06:12:51;8.43;;;5.90;;
17528;SDS011;8882;53.192;8.184;2023-02-28T06:15:17;9.00;;;6.37;;
17528;SDS011;8882;53.192;8.184;2023-02-28T06:17:43;13.13;;;6.37;;
17528;SDS011;8882;53.192;8.184;2023-02-28T06:20:09;10.27;;;6.00;;
17528;SDS011;8882;53.192;8.184;2023-02-28T06:22:37;9.20;;;5.77;;
17528;SDS011;8882;53.192;8.184;2023-02-28T06:25:04;8.70;;;6.10;;
17528;SDS011;8882;53.192;8.184;2023-02-28T06:27:31;10.00;;;6.40;;
17528;SDS011;8882;53.192;8.184;2023-02-28T06:29:57;8.10;;;5.70;;
17528;SDS011;8882;53.192;8.184;2023-02-28T06:32:22;9.30;;;6.33;;
17528;SDS011;8882;53.192;8.184;2023-02-28T06:34:48;8.80;;;5.97;;
17528;SDS011;8882;53.192;8.184;2023-02-28T06:37:15;9.87;;;5.90;;
17528;SDS011;8882;53.192;8.184;2023-02-28T06:39:41;8.60;;;6.17;;
17528;SDS011;8882;53.192;8.184;2023-02-28T06:42:06;7.00;;;5.53;;
17528;SDS011;8882;53.192;8.184;2023-02-28T06:44:32;7.33;;;6.07;;
17528;SDS011;8882;53.192;8.184;2023-02-28T06:46:59;7.57;;;5.80;;
17528;SDS011;8882;53.192;8.184;2023-02-28T06:49:29;9.70;;;6.07;;
17528;SDS011;8882;53.192;8.184;2023-02-28T06:51:56;8.77;;;5.63;;
17528;SDS011;8882;53.192;8.184;2023-02-28T06:54:22;6.80;;;5.53;;
17528;SDS011;8882;53.192;8.184;2023-02-28T06:56:47;6.23;;;5.63;;
17528;SDS011;8882;53.192;8.184;2023-02-28T06:59:13;7.53;;;5.97;;
17528;SDS011;8882;53.192;8.184;2023-02-28T07:01:39;9.07;;;6.20;;
17528;SDS011;8882;53.192;8.184;2023-02-28T07:04:05;11.30;;;6.70;;
17528;SDS011;8882;53.192;8.184;2023-02-28T07:06:31;10.43;;;6.20;;
17528;SDS011;8882;53.192;8.184;2023-02-28T07:08:57;8.20;;;6.23;;
17528;SDS011;8882;53.192;8.184;2023-02-28T07:11:24;8.30;;;5.33;;
17528;SDS011;8882;53.192;8.184;2023-02-28T07:13:54;7.13;;;5.23;;
17528;SDS011;8882;53.192;8.184;2023-02-28T07:16:20;8.47;;;6.27;;
17528;SDS011;8882;53.192;8.184;2023-02-28T07:18:47;8.43;;;6.13;;
17528;SDS011;8882;53.192;8.184;2023-02-28T07:21:12;7.00;;;6.07;;
17528;SDS011;8882;53.192;8.184;2023-02-28T07:23:38;7.97;;;5.63;;
17528;SDS011;8882;53.192;8.184;2023-02-28T07:26:04;9.40;;;5.60;;
17528;SDS011;8882;53.192;8.184;2023-02-28T07:28:31;10.23;;;5.57;;
17528;SDS011;8882;53.192;8.184;2023-02-28T07:31:02;8.67;;;5.97;;
17528;SDS011;8882;53.192;8.184;2023-02-28T07:33:28;6.83;;;5.30;;
17528;SDS011;8882;53.192;8.184;2023-02-28T07:35:59;7.53;;;4.87;;
17528;SDS011;8882;53.192;8.184;2023-02-28T07:38:26;7.20;;;4.50;;
17528;SDS011;8882;53.192;8.184;2023-02-28T07:40:51;5.97;;;3.83;;
17528;SDS011;8882;53.192;8.184;2023-02-28T07:43:17;5.33;;;4.23;;
17528;SDS011;8882;53.192;8.184;2023-02-28T07:45:42;6.80;;;3.90;;
17528;SDS011;8882;53.192;8.184;2023-02-28T07:48:08;6.63;;;3.77;;
17528;SDS011;8882;53.192;8.184;2023-02-28T07:50:34;4.73;;;3.43;;
17528;SDS011;8882;53.192;8.184;2023-02-28T07:53:00;4.87;;;3.73;;
17528;SDS011;8882;53.192;8.184;2023-02-28T07:55:25;4.97;;;2.83;;
17528;SDS011;8882;53.192;8.184;2023-02-28T07:57:51;5.07;;;3.73;;
17528;SDS011;8882;53.192;8.184;2023-02-28T08:00:17;4.07;;;3.17;;
17528;SDS011;8882;53.192;8.184;2023-02-28T08:02:43;9.50;;;3.90;;
17528;SDS011;8882;53.192;8.184;2023-02-28T08:05:08;5.90;;;3.50;;
17528;SDS011;8882;53.192;8.184;2023-02-28T08:07:34;5.63;;;3.50;;
17528;SDS011;8882;53.192;8.184;2023-02-28T08:09:59;7.20;;;3.03;;
17528;SDS011;8882;53.192;8.184;2023-02-28T08:12:25;5.57;;;3.47;;
17528;SDS011;8882;53.192;8.184;2023-02-28T08:14:51;6.73;;;3.33;;
17528;SDS011;8882;53.192;8.184;2023-02-28T08:17:16;6.50;;;3.20;;
17528;SDS011;8882;53.192;8.184;2023-02-28T08:19:44;3.13;;;2.80;;
17528;SDS011;8882;53.192;8.184;2023-02-28T08:22:10;3.97;;;3.10;;
17528;SDS011;8882;53.192;8.184;2023-02-28T08:24:36;3.40;;;3.00;;
17528;SDS011;8882;53.192;8.184;2023-02-28T08:27:02;3.93;;;3.03;;
17528;SDS011;8882;53.192;8.184;2023-02-28T08:29:27;5.60;;;2.77;;
17528;SDS011;8882;53.192;8.184;2023-02-28T08:31:55;3.50;;;2.73;;
17528;SDS011;8882;53.192;8.184;2023-02-28T08:34:20;2.77;;;2.50;;
17528;SDS011;8882;53.192;8.184;2023-02-28T08:36:46;4.23;;;3.00;;
17528;SDS011;8882;53.192;8.184;2023-02-28T08:39:11;5.87;;;2.90;;
17528;SDS011;8882;53.192;8.184;2023-02-28T08:41:37;4.60;;;2.90;;
17528;SDS011;8882;53.192;8.184;2023-02-28T08:44:03;6.53;;;2.90;;
17528;SDS011;8882;53.192;8.184;2023-02-28T08:46:29;4.60;;;2.80;;
17528;SDS011;8882;53.192;8.184;2023-02-28T08:48:55;3.87;;;2.67;;
17528;SDS011;8882;53.192;8.184;2023-02-28T08:51:24;3.07;;;2.73;;
17528;SDS011;8882;53.192;8.184;2023-02-28T08:53:53;3.53;;;2.47;;
17528;SDS011;8882;53.192;8.184;2023-02-28T08:56:19;3.30;;;2.50;;
17528;SDS011;8882;53.192;8.184;2023-02-28T08:58:46;3.50;;;2.50;;
17528;SDS011;8882;53.192;8.184;2023-02-28T09:01:17;3.53;;;2.40;;
17528;SDS011;8882;53.192;8.184;2023-02-28T09:03:45;3.97;;;2.10;;
17528;SDS011;8882;53.192;8.184;2023-02-28T09:06:13;2.70;;;2.13;;
17528;SDS011;8882;53.192;8.184;2023-02-28T09:08:39;2.30;;;2.10;;
17528;SDS011;8882;53.192;8.184;2023-02-28T09:11:05;5.00;;;2.60;;
17528;SDS011;8882;53.192;8.184;2023-02-28T09:13:31;4.87;;;2.60;;
17528;SDS011;8882;53.192;8.184;2023-02-28T09:15:58;3.90;;;2.40;;
17528;SDS011;8882;53.192;8.184;2023-02-28T09:18:25;2.87;;;2.20;;
17528;SDS011;8882;53.192;8.184;2023-02-28T09:20:51;2.83;;;2.33;;
17528;SDS011;8882;53.192;8.184;2023-02-28T09:23:17;3.03;;;2.37;;
17528;SDS011;8882;53.192;8.184;2023-02-28T09:25:47;2.47;;;2.27;;
17528;SDS011;8882;53.192;8.184;2023-02-28T09:28:13;3.17;;;2.20;;
17528;SDS011;8882;53.192;8.184;2023-02-28T09:30:41;4.63;;;1.90;;
17528;SDS011;8882;53.192;8.184;2023-02-28T09:33:07;3.87;;;1.90;;
17528;SDS011;8882;53.192;8.184;2023-02-28T09:35:33;5.30;;;2.07;;
17528;SDS011;8882;53.192;8.184;2023-02-28T09:37:58;1.97;;;1.77;;
17528;SDS011;8882;53.192;8.184;2023-02-28T09:40:24;2.27;;;1.73;;
17528;SDS011;8882;53.192;8.184;2023-02-28T09:42:52;2.03;;;1.40;;
17528;SDS011;8882;53.192;8.184;2023-02-28T09:45:29;2.43;;;1.90;;
17528;SDS011;8882;53.192;8.184;2023-02-28T09:48:03;2.37;;;1.67;;
17528;SDS011;8882;53.192;8.184;2023-02-28T09:50:36;1.93;;;1.73;;
17528;SDS011;8882;53.192;8.184;2023-02-28T09:53:36;2.60;;;2.10;;
17528;SDS011;8882;53.192;8.184;2023-02-28T09:56:07;2.40;;;1.40;;
17528;SDS011;8882;53.192;8.184;2023-02-28T09:58:55;2.57;;;1.40;;
17528;SDS011;8882;53.192;8.184;2023-02-28T10:02:10;2.87;;;1.53;;
17528;SDS011;8882;53.192;8.184;2023-02-28T10:06:53;5.40;;;1.70;;
17528;SDS011;8882;53.192;8.184;2023-02-28T10:09:21;1.60;;;1.50;;
17528;SDS011;8882;53.192;8.184;2023-02-28T10:11:52;1.40;;;1.30;;
17528;SDS011;8882;53.192;8.184;2023-02-28T10:14:20;1.97;;;1.53;;
17528;SDS011;8882;53.192;8.184;2023-02-28T10:16:48;2.00;;;1.63;;
17528;SDS011;8882;53.192;8.184;2023-02-28T10:19:26;1.93;;;1.63;;
17528;SDS011;8882;53.192;8.184;2023-02-28T10:22:17;1.77;;;1.43;;
17528;SDS011;8882;53.192;8.184;2023-02-28T10:24:45;2.03;;;1.60;;
17528;SDS011;8882;53.192;8.184;2023-02-28T10:29:44;1.47;;;1.33;;
17528;SDS011;8882;53.192;8.184;2023-02-28T10:32:15;2.20;;;1.60;;
17528;SDS011;8882;53.192;8.184;2023-02-28T10:34:43;2.63;;;1.37;;
17528;SDS011;8882;53.192;8.184;2023-02-28T10:37:10;2.70;;;1.27;;
17528;SDS011;8882;53.192;8.184;2023-02-28T10:39:42;3.77;;;1.50;;
17528;SDS011;8882;53.192;8.184;2023-02-28T10:42:25;1.97;;;1.50;;
17528;SDS011;8882;53.192;8.184;2023-02-28T10:45:14;2.50;;;1.30;;
17528;SDS011;8882;53.192;8.184;2023-02-28T10:47:41;2.57;;;1.67;;
17528;SDS011;8882;53.192;8.184;2023-02-28T10:53:28;5.33;;;1.40;;
17528;SDS011;8882;53.192;8.184;2023-02-28T10:56:04;1.07;;;1.07;;
17528;SDS011;8882;53.192;8.184;2023-02-28T10:58:54;1.73;;;1.43;;
17528;SDS011;8882;53.192;8.184;2023-02-28T11:04:00;2.93;;;1.40;;
17528;SDS011;8882;53.192;8.184;2023-02-28T11:06:27;2.27;;;1.40;;
17528;SDS011;8882;53.192;8.184;2023-02-28T11:09:00;1.13;;;1.07;;
17528;SDS011;8882;53.192;8.184;2023-02-28T11:11:29;1.40;;;1.30;;
17528;SDS011;8882;53.192;8.184;2023-02-28T11:14:05;2.10;;;1.20;;
17528;SDS011;8882;53.192;8.184;2023-02-28T11:16:42;2.13;;;1.40;;
17528;SDS011;8882;53.192;8.184;2023-02-28T11:19:14;2.87;;;1.40;;
17528;SDS011;8882;53.192;8.184;2023-02-28T11:21:52;2.40;;;1.33;;
17528;SDS011;8882;53.192;8.184;2023-02-28T11:24:27;1.30;;;1.13;;
17528;SDS011;8882;53.192;8.184;2023-02-28T11:26:59;1.90;;;1.20;;
17528;SDS011;8882;53.192;8.184;2023-02-28T11:29:28;1.27;;;1.17;;
17528;SDS011;8882;53.192;8.184;2023-02-28T11:34:37;2.20;;;1.30;;
17528;SDS011;8882;53.192;8.184;2023-02-28T11:37:03;1.30;;;1.20;;
17528;SDS011;8882;53.192;8.184;2023-02-28T11:39:31;1.17;;;1.17;;
17528;SDS011;8882;53.192;8.184;2023-02-28T11:50:14;2.80;;;0.93;;
17528;SDS011;8882;53.192;8.184;2023-02-28T11:53:01;0.83;;;0.80;;
17528;SDS011;8882;53.192;8.184;2023-02-28T11:55:52;2.27;;;1.40;;
17528;SDS011;8882;53.192;8.184;2023-02-28T11:58:34;1.17;;;1.07;;
17528;SDS011;8882;53.192;8.184;2023-02-28T12:09:39;1.40;;;1.30;;
17528;SDS011;8882;53.192;8.184;2023-02-28T12:17:46;3.03;;;1.43;;
17528;SDS011;8882;53.192;8.184;2023-02-28T12:21:37;1.33;;;1.23;;
17528;SDS011;8882;53.192;8.184;2023-02-28T12:26:47;2.80;;;1.30;;
17528;SDS011;8882;53.192;8.184;2023-02-28T12:29:23;1.07;;;1.07;;
17528;SDS011;8882;53.192;8.184;2023-02-28T12:32:05;1.43;;;1.10;;
17528;SDS011;8882;53.192;8.184;2023-02-28T12:34:51;1.53;;;1.20;;
17528;SDS011;8882;53.192;8.184;2023-02-28T12:37:43;0.80;;;0.80;;
17528;SDS011;8882;53.192;8.184;2023-02-28T12:40:19;1.93;;;1.20;;
17528;SDS011;8882;53.192;8.184;2023-02-28T12:42:57;1.07;;;1.00;;
17528;SDS011;8882;53.192;8.184;2023-02-28T12:45:46;1.33;;;1.17;;
17528;SDS011;8882;53.192;8.184;2023-02-28T12:48:28;1.30;;;1.20;;
17528;SDS011;8882;53.192;8.184;2023-02-28T12:51:18;1.13;;;1.03;;
17528;SDS011;8882;53.192;8.184;2023-02-28T12:56:33;1.53;;;1.27;;
17528;SDS011;8882;53.192;8.184;2023-02-28T12:59:19;1.17;;;1.10;;
17528;SDS011;8882;53.192;8.184;2023-02-28T13:05:18;2.00;;;1.20;;
17528;SDS011;8882;53.192;8.184;2023-02-28T13:10:49;1.73;;;1.33;;
17528;SDS011;8882;53.192;8.184;2023-02-28T13:13:23;1.20;;;1.10;;
17528;SDS011;8882;53.192;8.184;2023-02-28T13:16:07;2.90;;;1.40;;
17528;SDS011;8882;53.192;8.184;2023-02-28T13:18:45;2.53;;;1.70;;
17528;SDS011;8882;53.192;8.184;2023-02-28T13:26:20;1.23;;;1.13;;
17528;SDS011;8882;53.192;8.184;2023-02-28T13:28:57;1.93;;;1.20;;
17528;SDS011;8882;53.192;8.184;2023-02-28T13:31:24;3.13;;;1.57;;
17528;SDS011;8882;53.192;8.184;2023-02-28T13:38:43;2.70;;;1.30;;
17528;SDS011;8882;53.192;8.184;2023-02-28T13:47:23;1.23;;;1.17;;
17528;SDS011;8882;53.192;8.184;2023-02-28T14:06:31;2.03;;;1.50;;
17528;SDS011;8882;53.192;8.184;2023-02-28T14:13:56;1.40;;;1.20;;
17528;SDS011;8882;53.192;8.184;2023-02-28T14:17:08;2.67;;;1.50;;
17528;SDS011;8882;53.192;8.184;2023-02-28T14:19:13;2.03;;;1.33;;
17528;SDS011;8882;53.192;8.184;2023-02-28T14:39:21;1.60;;;1.47;;
17528;SDS011;8882;53.192;8.184;2023-02-28T14:41:50;1.93;;;1.73;;
17528;SDS011;8882;53.192;8.184;2023-02-28T14:44:26;1.43;;;1.20;;
17528;SDS011;8882;53.192;8.184;2023-02-28T14:46:53;2.37;;;1.50;;
17528;SDS011;8882;53.192;8.184;2023-02-28T14:51:50;1.93;;;1.67;;
17528;SDS011;8882;53.192;8.184;2023-02-28T14:54:39;1.67;;;1.37;;
17528;SDS011;8882;53.192;8.184;2023-02-28T14:57:05;1.67;;;1.30;;
17528;SDS011;8882;53.192;8.184;2023-02-28T14:59:32;2.20;;;1.60;;
17528;SDS011;8882;53.192;8.184;2023-02-28T15:04:59;3.33;;;1.60;;
17528;SDS011;8882;53.192;8.184;2023-02-28T15:07:27;4.60;;;2.07;;
17528;SDS011;8882;53.192;8.184;2023-02-28T15:10:09;1.77;;;1.50;;
17528;SDS011;8882;53.192;8.184;2023-02-28T15:12:35;1.63;;;1.53;;
17528;SDS011;8882;53.192;8.184;2023-02-28T15:15:02;8.13;;;1.97;;
17528;SDS011;8882;53.192;8.184;2023-02-28T15:17:28;2.73;;;1.70;;
17528;SDS011;8882;53.192;8.184;2023-02-28T15:19:54;6.50;;;3.77;;
17528;SDS011;8882;53.192;8.184;2023-02-28T15:22:31;3.27;;;1.50;;
17528;SDS011;8882;53.192;8.184;2023-02-28T15:25:00;2.63;;;1.60;;
17528;SDS011;8882;53.192;8.184;2023-02-28T15:27:29;3.20;;;1.40;;
17528;SDS011;8882;53.192;8.184;2023-02-28T15:30:07;2.93;;;1.83;;
17528;SDS011;8882;53.192;8.184;2023-02-28T15:32:39;1.83;;;1.40;;
17528;SDS011;8882;53.192;8.184;2023-02-28T15:35:19;3.67;;;1.27;;
17528;SDS011;8882;53.192;8.184;2023-02-28T15:37:53;2.73;;;1.40;;
17528;SDS011;8882;53.192;8.184;2023-02-28T15:40:28;1.50;;;1.40;;
17528;SDS011;8882;53.192;8.184;2023-02-28T15:45:52;1.30;;;1.20;;
17528;SDS011;8882;53.192;8.184;2023-02-28T15:48:30;1.90;;;1.70;;
17528;SDS011;8882;53.192;8.184;2023-02-28T15:51:09;1.57;;;1.40;;
17528;SDS011;8882;53.192;8.184;2023-02-28T15:53:57;2.33;;;1.73;;
17528;SDS011;8882;53.192;8.184;2023-02-28T15:56:32;2.30;;;1.57;;
17528;SDS011;8882;53.192;8.184;2023-02-28T15:59:01;3.90;;;1.60;;
17528;SDS011;8882;53.192;8.184;2023-02-28T16:03:56;2.93;;;1.50;;
17528;SDS011;8882;53.192;8.184;2023-02-28T16:09:08;2.63;;;2.43;;
17528;SDS011;8882;53.192;8.184;2023-02-28T16:11:37;1.70;;;1.60;;
17528;SDS011;8882;53.192;8.184;2023-02-28T16:14:06;3.63;;;2.20;;
17528;SDS011;8882;53.192;8.184;2023-02-28T16:16:33;4.43;;;1.70;;
17528;SDS011;8882;53.192;8.184;2023-02-28T16:19:07;2.87;;;1.90;;
17528;SDS011;8882;53.192;8.184;2023-02-28T16:21:33;2.87;;;2.30;;
17528;SDS011;8882;53.192;8.184;2023-02-28T16:23:58;2.40;;;2.03;;
17528;SDS011;8882;53.192;8.184;2023-02-28T16:26:24;2.70;;;1.90;;
17528;SDS011;8882;53.192;8.184;2023-02-28T16:28:52;2.40;;;1.50;;
17528;SDS011;8882;53.192;8.184;2023-02-28T16:31:18;3.53;;;1.87;;
17528;SDS011;8882;53.192;8.184;2023-02-28T16:33:44;2.50;;;1.30;;
17528;SDS011;8882;53.192;8.184;2023-02-28T16:36:20;1.87;;;1.60;;
17528;SDS011;8882;53.192;8.184;2023-02-28T16:38:49;1.80;;;1.70;;
17528;SDS011;8882;53.192;8.184;2023-02-28T16:41:17;2.30;;;2.07;;
17528;SDS011;8882;53.192;8.184;2023-02-28T16:43:47;1.77;;;1.67;;
17528;SDS011;8882;53.192;8.184;2023-02-28T16:46:16;1.93;;;1.70;;
17528;SDS011;8882;53.192;8.184;2023-02-28T16:48:43;3.23;;;1.90;;
17528;SDS011;8882;53.192;8.184;2023-02-28T16:51:13;4.57;;;2.27;;
17528;SDS011;8882;53.192;8.184;2023-02-28T16:53:40;2.60;;;1.80;;
17528;SDS011;8882;53.192;8.184;2023-02-28T16:56:05;3.40;;;1.90;;
17528;SDS011;8882;53.192;8.184;2023-02-28T16:58:32;2.20;;;2.00;;
17528;SDS011;8882;53.192;8.184;2023-02-28T17:01:00;2.70;;;2.07;;
17528;SDS011;8882;53.192;8.184;2023-02-28T17:03:27;2.67;;;2.30;;
17528;SDS011;8882;53.192;8.184;2023-02-28T17:05:53;5.23;;;2.20;;
17528;SDS011;8882;53.192;8.184;2023-02-28T17:08:18;3.63;;;2.20;;
17528;SDS011;8882;53.192;8.184;2023-02-28T17:10:44;3.00;;;2.13;;
17528;SDS011;8882;53.192;8.184;2023-02-28T17:13:10;2.53;;;2.03;;
17528;SDS011;8882;53.192;8.184;2023-02-28T17:15:36;3.20;;;2.50;;
17528;SDS011;8882;53.192;8.184;2023-02-28T17:18:02;2.63;;;2.43;;
17528;SDS011;8882;53.192;8.184;2023-02-28T17:20:28;2.57;;;2.20;;
17528;SDS011;8882;53.192;8.184;2023-02-28T17:22:54;4.43;;;3.03;;
17528;SDS011;8882;53.192;8.184;2023-02-28T17:25:21;4.03;;;3.40;;
17528;SDS011;8882;53.192;8.184;2023-02-28T17:27:47;5.17;;;3.80;;
17528;SDS011;8882;53.192;8.184;2023-02-28T17:30:23;5.40;;;3.47;;
17528;SDS011;8882;53.192;8.184;2023-02-28T17:32:52;3.53;;;3.23;;
17528;SDS011;8882;53.192;8.184;2023-02-28T17:35:21;6.30;;;4.10;;
17528;SDS011;8882;53.192;8.184;2023-02-28T17:37:47;5.57;;;4.63;;
17528;SDS011;8882;53.192;8.184;2023-02-28T17:40:17;7.53;;;4.63;;
17528;SDS011;8882;53.192;8.184;2023-02-28T17:42:46;8.13;;;5.07;;
17528;SDS011;8882;53.192;8.184;2023-02-28T17:45:12;7.77;;;5.07;;
17528;SDS011;8882;53.192;8.184;2023-02-28T17:47:39;9.83;;;5.00;;
17528;SDS011;8882;53.192;8.184;2023-02-28T17:50:05;8.63;;;5.57;;
17528;SDS011;8882;53.192;8.184;2023-02-28T17:52:31;9.10;;;5.17;;
17528;SDS011;8882;53.192;8.184;2023-02-28T17:55:01;6.97;;;5.13;;
17528;SDS011;8882;53.192;8.184;2023-02-28T17:57:28;11.70;;;4.93;;
17528;SDS011;8882;53.192;8.184;2023-02-28T17:59:53;12.97;;;6.57;;
17528;SDS011;8882;53.192;8.184;2023-02-28T18:02:19;14.43;;;7.73;;
17528;SDS011;8882;53.192;8.184;2023-02-28T18:04:44;14.00;;;6.47;;
17528;SDS011;8882;53.192;8.184;2023-02-28T18:07:10;14.00;;;7.77;;
17528;SDS011;8882;53.192;8.184;2023-02-28T18:09:37;14.30;;;7.27;;
17528;SDS011;8882;53.192;8.184;2023-02-28T18:12:02;15.30;;;7.43;;
17528;SDS011;8882;53.192;8.184;2023-02-28T18:14:28;15.43;;;7.50;;
17528;SDS011;8882;53.192;8.184;2023-02-28T18:16:54;13.67;;;7.27;;
17528;SDS011;8882;53.192;8.184;2023-02-28T18:19:21;15.67;;;6.50;;
17528;SDS011;8882;53.192;8.184;2023-02-28T18:21:47;10.50;;;7.33;;
17528;SDS011;8882;53.192;8.184;2023-02-28T18:24:15;12.83;;;7.90;;
17528;SDS011;8882;53.192;8.184;2023-02-28T18:26:41;11.87;;;6.80;;
17528;SDS011;8882;53.192;8.184;2023-02-28T18:29:07;13.77;;;7.37;;
17528;SDS011;8882;53.192;8.184;2023-02-28T18:31:39;9.90;;;6.57;;
17528;SDS011;8882;53.192;8.184;2023-02-28T18:34:05;10.23;;;6.87;;
17528;SDS011;8882;53.192;8.184;2023-02-28T18:36:31;14.77;;;6.63;;
17528;SDS011;8882;53.192;8.184;2023-02-28T18:38:56;8.47;;;6.00;;
17528;SDS011;8882;53.192;8.184;2023-02-28T18:41:23;13.23;;;6.77;;
17528;SDS011;8882;53.192;8.184;2023-02-28T18:43:49;11.83;;;6.00;;
17528;SDS011;8882;53.192;8.184;2023-02-28T18:46:16;12.13;;;6.20;;
17528;SDS011;8882;53.192;8.184;2023-02-28T18:48:43;12.27;;;6.50;;
17528;SDS011;8882;53.192;8.184;2023-02-28T18:53:40;14.73;;;8.50;;
17528;SDS011;8882;53.192;8.184;2023-02-28T18:56:07;11.20;;;7.47;;
17528;SDS011;8882;53.192;8.184;2023-02-28T18:58:34;9.03;;;7.17;;
17528;SDS011;8882;53.192;8.184;2023-02-28T19:01:00;14.37;;;7.47;;
17528;SDS011;8882;53.192;8.184;2023-02-28T19:03:27;14.67;;;7.43;;
17528;SDS011;8882;53.192;8.184;2023-02-28T19:05:53;13.63;;;6.77;;
17528;SDS011;8882;53.192;8.184;2023-02-28T19:08:20;10.70;;;6.40;;
17528;SDS011;8882;53.192;8.184;2023-02-28T19:10:45;11.07;;;6.50;;
17528;SDS011;8882;53.192;8.184;2023-02-28T19:13:11;13.23;;;7.77;;
17528;SDS011;8882;53.192;8.184;2023-02-28T19:15:36;16.23;;;8.40;;
17528;SDS011;8882;53.192;8.184;2023-02-28T19:18:02;12.13;;;6.93;;
17528;SDS011;8882;53.192;8.184;2023-02-28T19:20:27;13.50;;;6.57;;
17528;SDS011;8882;53.192;8.184;2023-02-28T19:22:53;12.43;;;6.40;;
17528;SDS011;8882;53.192;8.184;2023-02-28T19:25:18;14.87;;;6.97;;
17528;SDS011;8882;53.192;8.184;2023-02-28T19:27:44;10.50;;;6.60;;
17528;SDS011;8882;53.192;8.184;2023-02-28T19:30:09;12.30;;;8.07;;
17528;SDS011;8882;53.192;8.184;2023-02-28T19:32:36;13.23;;;7.87;;
17528;SDS011;8882;53.192;8.184;2023-02-28T19:35:02;15.17;;;7.40;;
17528;SDS011;8882;53.192;8.184;2023-02-28T19:37:28;12.60;;;7.07;;
17528;SDS011;8882;53.192;8.184;2023-02-28T19:39:53;10.53;;;7.33;;
17528;SDS011;8882;53.192;8.184;2023-02-28T19:42:21;15.63;;;7.63;;
17528;SDS011;8882;53.192;8.184;2023-02-28T19:44:46;14.17;;;8.67;;
17528;SDS011;8882;53.192;8.184;2023-02-28T19:47:12;12.33;;;7.97;;
17528;SDS011;8882;53.192;8.184;2023-02-28T19:49:38;20.57;;;10.27;;
17528;SDS011;8882;53.192;8.184;2023-02-28T19:52:03;14.03;;;8.50;;
17528;SDS011;8882;53.192;8.184;2023-02-28T19:54:29;14.20;;;8.57;;
17528;SDS011;8882;53.192;8.184;2023-02-28T19:56:55;14.67;;;8.93;;
17528;SDS011;8882;53.192;8.184;2023-02-28T19:59:22;14.17;;;9.33;;
17528;SDS011;8882;53.192;8.184;2023-02-28T20:01:51;14.40;;;9.90;;
17528;SDS011;8882;53.192;8.184;2023-02-28T20:04:23;14.17;;;8.13;;
17528;SDS011;8882;53.192;8.184;2023-02-28T20:06:50;13.87;;;8.03;;
17528;SDS011;8882;53.192;8.184;2023-02-28T20:09:17;13.07;;;7.40;;
17528;SDS011;8882;53.192;8.184;2023-02-28T20:11:43;11.87;;;7.23;;
17528;SDS011;8882;53.192;8.184;2023-02-28T20:14:09;12.60;;;7.27;;
17528;SDS011;8882;53.192;8.184;2023-02-28T20:16:37;13.43;;;8.23;;
17528;SDS011;8882;53.192;8.184;2023-02-28T20:19:04;20.17;;;9.50;;
17528;SDS011;8882;53.192;8.184;2023-02-28T20:21:29;46.57;;;21.17;;
17528;SDS011;8882;53.192;8.184;2023-02-28T20:23:54;86.60;;;36.40;;
17528;SDS011;8882;53.192;8.184;2023-02-28T20:26:20;69.87;;;30.87;;
17528;SDS011;8882;53.192;8.184;2023-02-28T20:28:46;55.17;;;25.33;;
17528;SDS011;8882;53.192;8.184;2023-02-28T20:31:12;53.87;;;26.40;;
17528;SDS011;8882;53.192;8.184;2023-02-28T20:33:40;43.50;;;20.93;;
17528;SDS011;8882;53.192;8.184;2023-02-28T20:36:06;31.10;;;15.97;;
17528;SDS011;8882;53.192;8.184;2023-02-28T20:38:34;22.77;;;13.33;;
17528;SDS011;8882;53.192;8.184;2023-02-28T20:41:00;21.13;;;10.07;;
17528;SDS011;8882;53.192;8.184;2023-02-28T20:43:27;14.10;;;8.73;;
17528;SDS011;8882;53.192;8.184;2023-02-28T20:45:54;14.30;;;9.33;;
17528;SDS011;8882;53.192;8.184;2023-02-28T20:48:26;18.43;;;12.67;;
17528;SDS011;8882;53.192;8.184;2023-02-28T20:50:56;17.53;;;11.93;;
17528;SDS011;8882;53.192;8.184;2023-02-28T20:53:24;15.77;;;11.07;;
17528;SDS011;8882;53.192;8.184;2023-02-28T20:55:57;18.83;;;10.17;;
17528;SDS011;8882;53.192;8.184;2023-02-28T20:58:25;15.43;;;9.20;;
17528;SDS011;8882;53.192;8.184;2023-02-28T21:01:00;15.20;;;8.67;;
17528;SDS011;8882;53.192;8.184;2023-02-28T21:03:36;13.93;;;8.40;;
17528;SDS011;8882;53.192;8.184;2023-02-28T21:06:05;13.83;;;8.73;;
17528;SDS011;8882;53.192;8.184;2023-02-28T21:08:32;17.00;;;9.73;;
17528;SDS011;8882;53.192;8.184;2023-02-28T21:10:59;15.93;;;9.73;;
17528;SDS011;8882;53.192;8.184;2023-02-28T21:13:24;16.90;;;9.23;;
17528;SDS011;8882;53.192;8.184;2023-02-28T21:15:50;19.00;;;9.30;;
17528;SDS011;8882;53.192;8.184;2023-02-28T21:18:17;16.60;;;9.30;;
17528;SDS011;8882;53.192;8.184;2023-02-28T21:20:43;18.53;;;10.20;;
17528;SDS011;8882;53.192;8.184;2023-02-28T21:23:09;15.13;;;9.67;;
17528;SDS011;8882;53.192;8.184;2023-02-28T21:25:34;18.10;;;9.30;;
17528;SDS011;8882;53.192;8.184;2023-02-28T21:28:00;13.80;;;9.20;;
17528;SDS011;8882;53.192;8.184;2023-02-28T21:30:25;20.37;;;9.90;;
17528;SDS011;8882;53.192;8.184;2023-02-28T21:32:51;14.63;;;9.20;;
17528;SDS011;8882;53.192;8.184;2023-02-28T21:35:16;15.83;;;9.23;;
17528;SDS011;8882;53.192;8.184;2023-02-28T21:37:42;13.83;;;8.33;;
17528;SDS011;8882;53.192;8.184;2023-02-28T21:40:08;16.83;;;8.87;;
17528;SDS011;8882;53.192;8.184;2023-02-28T21:42:34;16.00;;;9.27;;
17528;SDS011;8882;53.192;8.184;2023-02-28T21:45:00;17.33;;;9.77;;
17528;SDS011;8882;53.192;8.184;2023-02-28T21:47:28;14.17;;;8.87;;
17528;SDS011;8882;53.192;8.184;2023-02-28T21:49:54;15.00;;;9.63;;
17528;SDS011;8882;53.192;8.184;2023-02-28T21:52:20;15.97;;;10.17;;
17528;SDS011;8882;53.192;8.184;2023-02-28T21:54:46;14.67;;;8.37;;
17528;SDS011;8882;53.192;8.184;2023-02-28T21:57:12;17.03;;;8.73;;
17528;SDS011;8882;53.192;8.184;2023-02-28T21:59:39;15.07;;;8.13;;
